sensor_id;sensor_type;location;lat;lon;timestamp;pressure;altitude;pressure_sealevel;temperature;humidity
45403;BME280;47427;51.976;5.326;2023-03-11T00:02:20;100678.00;;;-1.32;100.00
45403;BME280;47427;51.976;5.326;2023-03-11T00:05:43;100685.19;;;-1.28;100.00
45403;BME280;47427;51.976;5.326;2023-03-11T00:09:07;100687.97;;;-1.25;100.00
45403;BME280;47427;51.976;5.326;2023-03-11T00:12:30;100687.22;;;-1.36;100.00
45403;BME280;47427;51.976;5.326;2023-03-11T00:16:11;100687.25;;;-1.59;100.00
45403;BME280;47427;51.976;5.326;2023-03-11T00:19:33;100685.22;;;-1.75;100.00
45403;BME280;47427;51.976;5.326;2023-03-11T00:22:54;100691.41;;;-1.85;100.00
45403;BME280;47427;51.976;5.326;2023-03-11T00:26:17;100690.38;;;-1.99;100.00
45403;BME280;47427;51.976;5.326;2023-03-11T00:29:40;100694.16;;;-2.05;100.00
45403;BME280;47427;51.976;5.326;2023-03-11T00:33:03;100700.34;;;-2.15;100.00
45403;BME280;47427;51.976;5.326;2023-03-11T00:36:30;100705.13;;;-2.20;100.00
45403;BME280;47427;51.976;5.326;2023-03-11T00:39:52;100719.19;;;-2.26;100.00
45403;BME280;47427;51.976;5.326;2023-03-11T00:43:15;100729.69;;;-2.23;100.00
45403;BME280;47427;51.976;5.326;2023-03-11T00:46:38;100725.47;;;-2.23;100.00
45403;BME280;47427;51.976;5.326;2023-03-11T00:50:00;100735.75;;;-2.23;100.00
45403;BME280;47427;51.976;5.326;2023-03-11T00:53:34;100729.94;;;-2.20;100.00
45403;BME280;47427;51.976;5.326;2023-03-11T00:56:55;100725.47;;;-2.11;100.00
45403;BME280;47427;51.976;5.326;2023-03-11T01:00:19;100740.59;;;-1.92;100.00
45403;BME280;47427;51.976;5.326;2023-03-11T01:03:46;100735.44;;;-1.92;100.00
45403;BME280;47427;51.976;5.326;2023-03-11T01:07:08;100743.47;;;-1.99;100.00
45403;BME280;47427;51.976;5.326;2023-03-11T01:10:32;100755.53;;;-2.10;100.00
45403;BME280;47427;51.976;5.326;2023-03-11T01:13:56;100745.81;;;-2.14;100.00
45403;BME280;47427;51.976;5.326;2023-03-11T01:17:18;100760.66;;;-2.22;100.00
45403;BME280;47427;51.976;5.326;2023-03-11T01:20:46;100762.94;;;-2.36;100.00
45403;BME280;47427;51.976;5.326;2023-03-11T01:24:08;100769.19;;;-2.45;100.00
45403;BME280;47427;51.976;5.326;2023-03-11T01:27:32;100774.84;;;-2.49;100.00
45403;BME280;47427;51.976;5.326;2023-03-11T01:30:56;100776.06;;;-2.55;100.00
45403;BME280;47427;51.976;5.326;2023-03-11T01:34:17;100789.69;;;-2.56;100.00
45403;BME280;47427;51.976;5.326;2023-03-11T01:38:00;100786.69;;;-2.51;100.00
45403;BME280;47427;51.976;5.326;2023-03-11T01:41:23;100788.00;;;-2.56;100.00
45403;BME280;47427;51.976;5.326;2023-03-11T01:44:49;100788.66;;;-2.58;100.00
45403;BME280;47427;51.976;5.326;2023-03-11T01:48:12;100785.34;;;-2.57;100.00
45403;BME280;47427;51.976;5.326;2023-03-11T01:51:46;100788.13;;;-2.54;100.00
45403;BME280;47427;51.976;5.326;2023-03-11T01:55:12;100778.28;;;-2.60;100.00
45403;BME280;47427;51.976;5.326;2023-03-11T01:58:38;100784.31;;;-2.59;100.00
45403;BME280;47427;51.976;5.326;2023-03-11T02:02:24;100790.34;;;-2.59;100.00
45403;BME280;47427;51.976;5.326;2023-03-11T02:06:13;100792.81;;;-2.60;100.00
45403;BME280;47427;51.976;5.326;2023-03-11T02:09:37;100788.31;;;-2.63;100.00
45403;BME280;47427;51.976;5.326;2023-03-11T02:13:02;100791.78;;;-2.63;100.00
45403;BME280;47427;51.976;5.326;2023-03-11T02:16:44;100797.34;;;-2.68;100.00
45403;BME280;47427;51.976;5.326;2023-03-11T02:21:07;100799.56;;;-2.73;100.00
45403;BME280;47427;51.976;5.326;2023-03-11T02:25:08;100802.66;;;-2.77;100.00
45403;BME280;47427;51.976;5.326;2023-03-11T02:28:34;100805.72;;;-2.71;100.00
45403;BME280;47427;51.976;5.326;2023-03-11T02:32:04;100802.13;;;-2.73;100.00
45403;BME280;47427;51.976;5.326;2023-03-11T02:35:29;100801.22;;;-2.73;100.00
45403;BME280;47427;51.976;5.326;2023-03-11T02:38:52;100803.66;;;-2.75;100.00
45403;BME280;47427;51.976;5.326;2023-03-11T02:42:23;100793.53;;;-2.73;100.00
45403;BME280;47427;51.976;5.326;2023-03-11T02:45:45;100798.91;;;-2.70;100.00
45403;BME280;47427;51.976;5.326;2023-03-11T02:49:10;100794.50;;;-2.71;100.00
45403;BME280;47427;51.976;5.326;2023-03-11T02:52:34;100798.09;;;-2.69;100.00
45403;BME280;47427;51.976;5.326;2023-03-11T02:55:57;100799.13;;;-2.67;100.00
45403;BME280;47427;51.976;5.326;2023-03-11T02:59:19;100794.78;;;-2.68;100.00
45403;BME280;47427;51.976;5.326;2023-03-11T03:02:44;100800.00;;;-2.67;100.00
45403;BME280;47427;51.976;5.326;2023-03-11T03:06:07;100798.09;;;-2.69;100.00
45403;BME280;47427;51.976;5.326;2023-03-11T03:09:29;100809.91;;;-2.71;100.00
45403;BME280;47427;51.976;5.326;2023-03-11T03:12:52;100814.72;;;-2.76;100.00
45403;BME280;47427;51.976;5.326;2023-03-11T03:16:14;100815.00;;;-2.83;100.00
45403;BME280;47427;51.976;5.326;2023-03-11T03:19:37;100822.34;;;-2.88;100.00
45403;BME280;47427;51.976;5.326;2023-03-11T03:23:01;100827.09;;;-2.92;100.00
45403;BME280;47427;51.976;5.326;2023-03-11T03:26:25;100835.34;;;-2.96;100.00
45403;BME280;47427;51.976;5.326;2023-03-11T03:29:48;100832.06;;;-3.06;100.00
45403;BME280;47427;51.976;5.326;2023-03-11T03:33:12;100840.16;;;-3.11;100.00
45403;BME280;47427;51.976;5.326;2023-03-11T03:36:33;100848.38;;;-3.15;100.00
45403;BME280;47427;51.976;5.326;2023-03-11T03:39:58;100841.19;;;-3.19;100.00
45403;BME280;47427;51.976;5.326;2023-03-11T03:43:20;100854.66;;;-3.22;100.00
45403;BME280;47427;51.976;5.326;2023-03-11T03:46:43;100853.53;;;-3.25;100.00
45403;BME280;47427;51.976;5.326;2023-03-11T03:50:09;100860.63;;;-3.33;100.00
45403;BME280;47427;51.976;5.326;2023-03-11T03:53:33;100858.28;;;-3.30;100.00
45403;BME280;47427;51.976;5.326;2023-03-11T03:56:57;100858.44;;;-3.29;100.00
45403;BME280;47427;51.976;5.326;2023-03-11T04:00:20;100867.53;;;-3.32;100.00
45403;BME280;47427;51.976;5.326;2023-03-11T04:03:49;100866.25;;;-3.37;100.00
45403;BME280;47427;51.976;5.326;2023-03-11T04:07:12;100870.25;;;-3.41;100.00
45403;BME280;47427;51.976;5.326;2023-03-11T04:10:34;100874.09;;;-3.46;100.00
45403;BME280;47427;51.976;5.326;2023-03-11T04:13:57;100887.69;;;-3.47;100.00
45403;BME280;47427;51.976;5.326;2023-03-11T04:17:20;100891.81;;;-3.49;100.00
45403;BME280;47427;51.976;5.326;2023-03-11T04:20:44;100876.16;;;-3.52;100.00
45403;BME280;47427;51.976;5.326;2023-03-11T04:24:09;100882.06;;;-3.53;100.00
45403;BME280;47427;51.976;5.326;2023-03-11T04:27:36;100877.19;;;-2.97;100.00
45403;BME280;47427;51.976;5.326;2023-03-11T04:31:00;100881.63;;;-1.75;100.00
45403;BME280;47427;51.976;5.326;2023-03-11T04:34:42;100875.81;;;-1.72;100.00
45403;BME280;47427;51.976;5.326;2023-03-11T04:38:06;100886.94;;;-1.83;100.00
45403;BME280;47427;51.976;5.326;2023-03-11T04:41:30;100888.13;;;-2.02;100.00
45403;BME280;47427;51.976;5.326;2023-03-11T04:44:53;100893.75;;;-2.17;100.00
45403;BME280;47427;51.976;5.326;2023-03-11T04:48:15;100895.72;;;-2.47;100.00
45403;BME280;47427;51.976;5.326;2023-03-11T04:51:38;100889.84;;;-2.78;100.00
45403;BME280;47427;51.976;5.326;2023-03-11T04:55:01;100893.47;;;-2.97;100.00
45403;BME280;47427;51.976;5.326;2023-03-11T04:58:26;100905.84;;;-3.13;100.00
45403;BME280;47427;51.976;5.326;2023-03-11T05:02:07;100900.88;;;-3.32;100.00
45403;BME280;47427;51.976;5.326;2023-03-11T05:05:31;100916.94;;;-3.45;100.00
45403;BME280;47427;51.976;5.326;2023-03-11T05:08:54;100907.56;;;-3.44;100.00
45403;BME280;47427;51.976;5.326;2023-03-11T05:12:19;100907.72;;;-3.53;100.00
45403;BME280;47427;51.976;5.326;2023-03-11T05:15:45;100908.75;;;-3.61;100.00
45403;BME280;47427;51.976;5.326;2023-03-11T05:19:08;100919.41;;;-3.67;100.00
45403;BME280;47427;51.976;5.326;2023-03-11T05:22:49;100910.91;;;-3.76;100.00
45403;BME280;47427;51.976;5.326;2023-03-11T05:26:13;100914.63;;;-3.83;100.00
45403;BME280;47427;51.976;5.326;2023-03-11T05:29:38;100927.31;;;-3.84;100.00
45403;BME280;47427;51.976;5.326;2023-03-11T05:33:01;100930.38;;;-3.88;100.00
45403;BME280;47427;51.976;5.326;2023-03-11T05:36:24;100933.34;;;-3.94;100.00
45403;BME280;47427;51.976;5.326;2023-03-11T05:39:47;100931.81;;;-3.92;100.00
45403;BME280;47427;51.976;5.326;2023-03-11T05:43:10;100929.09;;;-3.94;100.00
45403;BME280;47427;51.976;5.326;2023-03-11T05:46:36;100937.81;;;-4.02;100.00
45403;BME280;47427;51.976;5.326;2023-03-11T05:49:59;100936.00;;;-4.03;100.00
45403;BME280;47427;51.976;5.326;2023-03-11T05:53:22;100939.09;;;-4.07;100.00
45403;BME280;47427;51.976;5.326;2023-03-11T05:56:47;100952.38;;;-4.11;100.00
45403;BME280;47427;51.976;5.326;2023-03-11T06:00:10;100961.88;;;-4.10;100.00
45403;BME280;47427;51.976;5.326;2023-03-11T06:03:41;100957.41;;;-4.12;100.00
45403;BME280;47427;51.976;5.326;2023-03-11T06:07:04;100964.06;;;-4.15;100.00
45403;BME280;47427;51.976;5.326;2023-03-11T06:10:30;100963.78;;;-4.18;100.00
45403;BME280;47427;51.976;5.326;2023-03-11T06:13:56;100971.19;;;-4.21;100.00
45403;BME280;47427;51.976;5.326;2023-03-11T06:17:20;100976.72;;;-4.16;100.00
45403;BME280;47427;51.976;5.326;2023-03-11T06:20:44;100977.91;;;-4.12;100.00
45403;BME280;47427;51.976;5.326;2023-03-11T06:24:07;100976.34;;;-4.10;100.00
45403;BME280;47427;51.976;5.326;2023-03-11T06:27:29;100980.19;;;-4.05;100.00
45403;BME280;47427;51.976;5.326;2023-03-11T06:30:52;100982.53;;;-3.98;100.00
45403;BME280;47427;51.976;5.326;2023-03-11T06:34:18;100991.00;;;-3.89;100.00
45403;BME280;47427;51.976;5.326;2023-03-11T06:37:41;101001.13;;;-3.80;100.00
45403;BME280;47427;51.976;5.326;2023-03-11T06:41:05;101000.16;;;-3.72;100.00
45403;BME280;47427;51.976;5.326;2023-03-11T06:44:28;100998.50;;;-3.61;100.00
45403;BME280;47427;51.976;5.326;2023-03-11T06:47:51;101006.69;;;-3.55;100.00
45403;BME280;47427;51.976;5.326;2023-03-11T06:51:15;101010.44;;;-3.52;100.00
45403;BME280;47427;51.976;5.326;2023-03-11T06:54:37;101010.16;;;-3.44;100.00
45403;BME280;47427;51.976;5.326;2023-03-11T06:58:00;101009.00;;;-3.38;100.00
45403;BME280;47427;51.976;5.326;2023-03-11T07:01:25;101013.09;;;-3.30;100.00
45403;BME280;47427;51.976;5.326;2023-03-11T07:04:49;101026.31;;;-3.15;100.00
45403;BME280;47427;51.976;5.326;2023-03-11T07:08:14;101031.19;;;-3.08;100.00
45403;BME280;47427;51.976;5.326;2023-03-11T07:11:37;101040.31;;;-2.91;100.00
45403;BME280;47427;51.976;5.326;2023-03-11T07:15:06;101044.13;;;-2.75;100.00
45403;BME280;47427;51.976;5.326;2023-03-11T07:18:31;101031.00;;;-2.58;100.00
45403;BME280;47427;51.976;5.326;2023-03-11T07:21:56;101041.19;;;-2.27;100.00
45403;BME280;47427;51.976;5.326;2023-03-11T07:25:18;101035.16;;;0.12;100.00
45403;BME280;47427;51.976;5.326;2023-03-11T07:28:41;101040.75;;;1.98;100.00
45403;BME280;47427;51.976;5.326;2023-03-11T07:32:03;101037.44;;;3.13;100.00
45403;BME280;47427;51.976;5.326;2023-03-11T07:35:25;101045.47;;;4.25;100.00
45403;BME280;47427;51.976;5.326;2023-03-11T07:38:53;101039.38;;;5.06;100.00
45403;BME280;47427;51.976;5.326;2023-03-11T07:42:14;101031.97;;;5.66;100.00
45403;BME280;47427;51.976;5.326;2023-03-11T07:46:08;101042.09;;;7.30;100.00
45403;BME280;47427;51.976;5.326;2023-03-11T07:49:32;101051.63;;;8.38;100.00
45403;BME280;47427;51.976;5.326;2023-03-11T07:52:54;101051.22;;;9.20;100.00
45403;BME280;47427;51.976;5.326;2023-03-11T07:56:17;101058.25;;;10.01;100.00
45403;BME280;47427;51.976;5.326;2023-03-11T07:59:40;101060.31;;;10.67;100.00
45403;BME280;47427;51.976;5.326;2023-03-11T08:03:03;101069.34;;;11.09;100.00
45403;BME280;47427;51.976;5.326;2023-03-11T08:06:28;101063.16;;;11.73;100.00
45403;BME280;47427;51.976;5.326;2023-03-11T08:09:52;101067.78;;;11.83;100.00
45403;BME280;47427;51.976;5.326;2023-03-11T08:13:15;101067.16;;;12.28;100.00
45403;BME280;47427;51.976;5.326;2023-03-11T08:16:39;101059.34;;;12.74;100.00
45403;BME280;47427;51.976;5.326;2023-03-11T08:20:01;101058.63;;;13.27;100.00
45403;BME280;47427;51.976;5.326;2023-03-11T08:23:25;101067.88;;;13.50;100.00
45403;BME280;47427;51.976;5.326;2023-03-11T08:26:47;101065.47;;;13.18;100.00
45403;BME280;47427;51.976;5.326;2023-03-11T08:30:11;101071.75;;;13.71;100.00
45403;BME280;47427;51.976;5.326;2023-03-11T08:33:32;101068.50;;;14.46;100.00
45403;BME280;47427;51.976;5.326;2023-03-11T08:36:55;101067.75;;;14.55;100.00
45403;BME280;47427;51.976;5.326;2023-03-11T08:40:18;101081.78;;;14.52;100.00
45403;BME280;47427;51.976;5.326;2023-03-11T08:43:40;101088.63;;;14.38;100.00
45403;BME280;47427;51.976;5.326;2023-03-11T08:47:03;101085.19;;;13.86;100.00
45403;BME280;47427;51.976;5.326;2023-03-11T08:50:25;101089.19;;;14.78;100.00
45403;BME280;47427;51.976;5.326;2023-03-11T08:53:48;101080.16;;;14.61;100.00
45403;BME280;47427;51.976;5.326;2023-03-11T08:57:11;101092.78;;;14.22;100.00
45403;BME280;47427;51.976;5.326;2023-03-11T09:00:33;101084.06;;;14.89;100.00
45403;BME280;47427;51.976;5.326;2023-03-11T09:03:56;101094.44;;;15.50;100.00
45403;BME280;47427;51.976;5.326;2023-03-11T09:07:39;101099.63;;;16.51;100.00
45403;BME280;47427;51.976;5.326;2023-03-11T09:11:02;101109.38;;;16.53;100.00
45403;BME280;47427;51.976;5.326;2023-03-11T09:14:24;101102.75;;;17.66;100.00
45403;BME280;47427;51.976;5.326;2023-03-11T09:17:46;101105.44;;;17.98;92.27
45403;BME280;47427;51.976;5.326;2023-03-11T09:21:09;101102.75;;;18.30;86.77
45403;BME280;47427;51.976;5.326;2023-03-11T09:24:33;101099.03;;;18.96;89.30
45403;BME280;47427;51.976;5.326;2023-03-11T09:27:56;101103.31;;;19.29;76.87
45403;BME280;47427;51.976;5.326;2023-03-11T09:31:19;101105.06;;;19.38;68.08
45403;BME280;47427;51.976;5.326;2023-03-11T09:34:42;101112.38;;;18.93;69.67
45403;BME280;47427;51.976;5.326;2023-03-11T09:38:05;101104.91;;;19.59;70.33
45403;BME280;47427;51.976;5.326;2023-03-11T09:45:33;101101.03;;;18.03;70.09
45403;BME280;47427;51.976;5.326;2023-03-11T09:49:04;101092.22;;;19.98;54.36
45403;BME280;47427;51.976;5.326;2023-03-11T09:52:41;101094.19;;;20.70;51.62
45403;BME280;47427;51.976;5.326;2023-03-11T09:56:14;101097.78;;;21.36;49.63
45403;BME280;47427;51.976;5.326;2023-03-11T09:59:39;101096.06;;;20.62;42.07
45403;BME280;47427;51.976;5.326;2023-03-11T10:03:10;101107.00;;;21.12;43.33
45403;BME280;47427;51.976;5.326;2023-03-11T10:06:34;101099.22;;;20.95;41.46
45403;BME280;47427;51.976;5.326;2023-03-11T10:09:57;101105.41;;;20.12;41.44
45403;BME280;47427;51.976;5.326;2023-03-11T10:13:30;101102.47;;;19.22;41.32
45403;BME280;47427;51.976;5.326;2023-03-11T10:17:33;101117.66;;;15.78;41.63
45403;BME280;47427;51.976;5.326;2023-03-11T10:25:13;101115.88;;;15.79;46.51
45403;BME280;47427;51.976;5.326;2023-03-11T10:29:06;101112.88;;;19.59;43.04
45403;BME280;47427;51.976;5.326;2023-03-11T10:36:08;101120.19;;;16.85;41.96
45403;BME280;47427;51.976;5.326;2023-03-11T10:39:33;101122.78;;;14.29;45.13
45403;BME280;47427;51.976;5.326;2023-03-11T10:43:00;101119.66;;;13.48;46.43
45403;BME280;47427;51.976;5.326;2023-03-11T10:46:26;101102.41;;;12.77;46.82
45403;BME280;47427;51.976;5.326;2023-03-11T10:49:50;101100.28;;;12.22;50.37
45403;BME280;47427;51.976;5.326;2023-03-11T10:53:16;101099.31;;;12.17;50.39
45403;BME280;47427;51.976;5.326;2023-03-11T10:56:40;101106.88;;;12.80;49.75
45403;BME280;47427;51.976;5.326;2023-03-11T11:00:28;101109.91;;;13.94;47.18
45403;BME280;47427;51.976;5.326;2023-03-11T11:03:53;101105.13;;;14.23;46.51
45403;BME280;47427;51.976;5.326;2023-03-11T11:07:31;101107.19;;;15.91;43.05
45403;BME280;47427;51.976;5.326;2023-03-11T11:11:23;101114.06;;;17.06;42.42
45403;BME280;47427;51.976;5.326;2023-03-11T11:14:50;101110.41;;;16.77;36.38
45403;BME280;47427;51.976;5.326;2023-03-11T11:18:40;101123.47;;;19.76;36.05
45403;BME280;47427;51.976;5.326;2023-03-11T11:22:03;101115.94;;;22.28;33.25
45403;BME280;47427;51.976;5.326;2023-03-11T11:25:37;101114.34;;;22.66;31.57
45403;BME280;47427;51.976;5.326;2023-03-11T11:32:32;101119.69;;;22.15;29.42
45403;BME280;47427;51.976;5.326;2023-03-11T11:35:58;101109.75;;;23.17;28.35
45403;BME280;47427;51.976;5.326;2023-03-11T11:39:20;101119.34;;;23.27;25.92
45403;BME280;47427;51.976;5.326;2023-03-11T11:43:02;101120.53;;;24.27;25.49
45403;BME280;47427;51.976;5.326;2023-03-11T11:46:40;101107.88;;;24.98;27.42
45403;BME280;47427;51.976;5.326;2023-03-11T11:50:11;101110.03;;;24.54;25.33
45403;BME280;47427;51.976;5.326;2023-03-11T11:53:43;101107.19;;;23.90;26.45
45403;BME280;47427;51.976;5.326;2023-03-11T11:57:31;101107.34;;;23.84;24.72
45403;BME280;47427;51.976;5.326;2023-03-11T12:13:02;101103.38;;;24.34;23.63
45403;BME280;47427;51.976;5.326;2023-03-11T12:16:51;101101.94;;;24.21;23.21
45403;BME280;47427;51.976;5.326;2023-03-11T12:20:36;101102.84;;;24.85;23.19
45403;BME280;47427;51.976;5.326;2023-03-11T12:31:37;101097.19;;;24.65;21.97
45403;BME280;47427;51.976;5.326;2023-03-11T12:35:22;101092.94;;;25.19;22.68
45403;BME280;47427;51.976;5.326;2023-03-11T12:38:47;101093.38;;;25.35;23.43
45403;BME280;47427;51.976;5.326;2023-03-11T12:42:22;101087.00;;;24.11;21.68
45403;BME280;47427;51.976;5.326;2023-03-11T12:45:52;101082.31;;;24.84;23.67
45403;BME280;47427;51.976;5.326;2023-03-11T12:49:33;101081.81;;;24.70;22.71
45403;BME280;47427;51.976;5.326;2023-03-11T12:52:55;101090.03;;;24.95;23.31
45403;BME280;47427;51.976;5.326;2023-03-11T12:56:42;101082.88;;;24.32;21.88
45403;BME280;47427;51.976;5.326;2023-03-11T13:00:48;101081.63;;;24.45;24.16
45403;BME280;47427;51.976;5.326;2023-03-11T13:08:22;101086.03;;;24.48;20.49
45403;BME280;47427;51.976;5.326;2023-03-11T13:11:47;101087.34;;;23.59;21.71
45403;BME280;47427;51.976;5.326;2023-03-11T13:15:36;101089.63;;;22.54;21.16
45403;BME280;47427;51.976;5.326;2023-03-11T13:26:32;101083.78;;;21.80;20.13
45403;BME280;47427;51.976;5.326;2023-03-11T13:30:20;101091.22;;;22.64;22.64
45403;BME280;47427;51.976;5.326;2023-03-11T13:41:35;101071.84;;;21.46;22.24
45403;BME280;47427;51.976;5.326;2023-03-11T13:45:01;101077.47;;;21.84;20.38
45403;BME280;47427;51.976;5.326;2023-03-11T13:48:43;101078.13;;;20.75;19.47
45403;BME280;47427;51.976;5.326;2023-03-11T13:52:26;101077.41;;;19.60;21.52
45403;BME280;47427;51.976;5.326;2023-03-11T13:55:49;101074.88;;;19.40;23.45
45403;BME280;47427;51.976;5.326;2023-03-11T13:59:27;101081.31;;;18.98;24.61
45403;BME280;47427;51.976;5.326;2023-03-11T14:02:53;101085.97;;;17.91;25.70
45403;BME280;47427;51.976;5.326;2023-03-11T14:06:19;101092.16;;;18.03;26.10
45403;BME280;47427;51.976;5.326;2023-03-11T14:09:42;101084.59;;;19.46;24.24
45403;BME280;47427;51.976;5.326;2023-03-11T14:13:18;101086.75;;;20.12;24.15
45403;BME280;47427;51.976;5.326;2023-03-11T14:16:40;101090.66;;;19.73;23.92
45403;BME280;47427;51.976;5.326;2023-03-11T14:20:17;101097.34;;;18.66;25.38
45403;BME280;47427;51.976;5.326;2023-03-11T14:23:49;101100.97;;;17.71;26.84
45403;BME280;47427;51.976;5.326;2023-03-11T14:27:14;101091.03;;;16.88;27.66
45403;BME280;47427;51.976;5.326;2023-03-11T14:30:38;101096.00;;;16.32;26.66
45403;BME280;47427;51.976;5.326;2023-03-11T14:34:02;101114.66;;;16.49;26.31
45403;BME280;47427;51.976;5.326;2023-03-11T14:37:32;101104.09;;;16.55;26.00
45403;BME280;47427;51.976;5.326;2023-03-11T14:41:00;101095.44;;;16.82;27.89
45403;BME280;47427;51.976;5.326;2023-03-11T14:44:23;101106.69;;;16.44;26.82
45403;BME280;47427;51.976;5.326;2023-03-11T14:47:54;101106.22;;;15.84;28.29
45403;BME280;47427;51.976;5.326;2023-03-11T14:51:25;101111.44;;;15.75;27.63
45403;BME280;47427;51.976;5.326;2023-03-11T14:54:51;101104.97;;;16.54;27.42
45403;BME280;47427;51.976;5.326;2023-03-11T14:58:37;101105.97;;;16.74;27.66
45403;BME280;47427;51.976;5.326;2023-03-11T15:06:11;101103.44;;;16.94;27.28
45403;BME280;47427;51.976;5.326;2023-03-11T15:09:39;101113.19;;;17.03;27.95
45403;BME280;47427;51.976;5.326;2023-03-11T15:13:14;101115.00;;;17.16;26.28
45403;BME280;47427;51.976;5.326;2023-03-11T15:16:37;101111.78;;;16.16;27.27
45403;BME280;47427;51.976;5.326;2023-03-11T15:19:58;101101.00;;;15.95;28.51
45403;BME280;47427;51.976;5.326;2023-03-11T15:23:21;101108.69;;;15.69;27.73
45403;BME280;47427;51.976;5.326;2023-03-11T15:26:54;101099.78;;;14.80;28.49
45403;BME280;47427;51.976;5.326;2023-03-11T15:30:23;101104.31;;;13.73;29.92
45403;BME280;47427;51.976;5.326;2023-03-11T15:37:40;101103.66;;;13.39;30.77
45403;BME280;47427;51.976;5.326;2023-03-11T15:41:02;101101.91;;;12.94;30.82
45403;BME280;47427;51.976;5.326;2023-03-11T15:44:32;101098.94;;;13.22;30.03
45403;BME280;47427;51.976;5.326;2023-03-11T15:47:57;101095.19;;;13.10;29.70
45403;BME280;47427;51.976;5.326;2023-03-11T15:51:20;101094.63;;;12.82;29.22
45403;BME280;47427;51.976;5.326;2023-03-11T15:54:41;101100.00;;;12.46;30.04
45403;BME280;47427;51.976;5.326;2023-03-11T15:58:06;101102.50;;;12.41;31.12
45403;BME280;47427;51.976;5.326;2023-03-11T16:01:30;101100.44;;;12.28;29.74
45403;BME280;47427;51.976;5.326;2023-03-11T16:04:52;101105.81;;;12.32;30.78
45403;BME280;47427;51.976;5.326;2023-03-11T16:08:15;101096.22;;;12.75;30.71
45403;BME280;47427;51.976;5.326;2023-03-11T16:11:38;101098.75;;;13.13;29.31
45403;BME280;47427;51.976;5.326;2023-03-11T16:15:01;101097.47;;;13.35;29.51
45403;BME280;47427;51.976;5.326;2023-03-11T16:18:25;101093.25;;;13.01;30.76
45403;BME280;47427;51.976;5.326;2023-03-11T16:21:48;101099.88;;;12.41;30.29
45403;BME280;47427;51.976;5.326;2023-03-11T16:25:20;101098.31;;;11.43;30.62
45403;BME280;47427;51.976;5.326;2023-03-11T16:29:03;101102.47;;;10.45;31.35
45403;BME280;47427;51.976;5.326;2023-03-11T16:32:26;101109.09;;;10.06;31.73
45403;BME280;47427;51.976;5.326;2023-03-11T16:35:48;101105.16;;;9.66;34.53
45403;BME280;47427;51.976;5.326;2023-03-11T16:39:10;101093.47;;;9.57;34.12
45403;BME280;47427;51.976;5.326;2023-03-11T16:43:17;101095.94;;;9.02;33.69
45403;BME280;47427;51.976;5.326;2023-03-11T16:46:40;101104.41;;;8.49;34.83
45403;BME280;47427;51.976;5.326;2023-03-11T16:50:04;101101.72;;;8.03;36.13
45403;BME280;47427;51.976;5.326;2023-03-11T16:53:26;101100.59;;;7.76;38.74
45403;BME280;47427;51.976;5.326;2023-03-11T16:56:49;101098.56;;;7.49;39.45
45403;BME280;47427;51.976;5.326;2023-03-11T17:00:13;101103.91;;;7.31;39.57
45403;BME280;47427;51.976;5.326;2023-03-11T17:03:35;101114.16;;;7.07;40.83
45403;BME280;47427;51.976;5.326;2023-03-11T17:06:58;101109.44;;;6.79;42.28
45403;BME280;47427;51.976;5.326;2023-03-11T17:10:20;101115.63;;;6.63;42.69
45403;BME280;47427;51.976;5.326;2023-03-11T17:13:44;101114.94;;;6.48;44.14
45403;BME280;47427;51.976;5.326;2023-03-11T17:17:07;101100.91;;;6.26;44.33
45403;BME280;47427;51.976;5.326;2023-03-11T17:20:29;101108.34;;;6.19;45.52
45403;BME280;47427;51.976;5.326;2023-03-11T17:23:51;101107.38;;;5.99;47.12
45403;BME280;47427;51.976;5.326;2023-03-11T17:27:15;101104.09;;;5.85;47.43
45403;BME280;47427;51.976;5.326;2023-03-11T17:30:43;101117.59;;;5.78;48.37
45403;BME280;47427;51.976;5.326;2023-03-11T17:34:06;101114.91;;;5.76;49.34
45403;BME280;47427;51.976;5.326;2023-03-11T17:37:29;101113.06;;;5.74;48.67
45403;BME280;47427;51.976;5.326;2023-03-11T17:40:51;101121.06;;;5.60;51.30
45403;BME280;47427;51.976;5.326;2023-03-11T17:44:13;101122.97;;;5.47;50.65
45403;BME280;47427;51.976;5.326;2023-03-11T17:47:55;101123.88;;;5.31;50.51
45403;BME280;47427;51.976;5.326;2023-03-11T17:51:21;101127.22;;;5.28;51.93
45403;BME280;47427;51.976;5.326;2023-03-11T17:54:44;101135.38;;;5.18;52.79
45403;BME280;47427;51.976;5.326;2023-03-11T17:58:07;101126.75;;;5.03;52.72
45403;BME280;47427;51.976;5.326;2023-03-11T18:01:29;101133.31;;;4.96;53.89
45403;BME280;47427;51.976;5.326;2023-03-11T18:04:51;101132.59;;;4.82;54.28
45403;BME280;47427;51.976;5.326;2023-03-11T18:08:15;101133.66;;;4.69;54.65
45403;BME280;47427;51.976;5.326;2023-03-11T18:11:37;101136.63;;;4.61;55.46
45403;BME280;47427;51.976;5.326;2023-03-11T18:15:03;101138.00;;;4.54;56.74
45403;BME280;47427;51.976;5.326;2023-03-11T18:18:28;101149.28;;;4.54;56.83
45403;BME280;47427;51.976;5.326;2023-03-11T18:21:51;101149.75;;;4.47;57.92
45403;BME280;47427;51.976;5.326;2023-03-11T18:25:13;101150.94;;;4.38;58.50
45403;BME280;47427;51.976;5.326;2023-03-11T18:28:36;101159.41;;;4.33;59.17
45403;BME280;47427;51.976;5.326;2023-03-11T18:31:57;101148.63;;;4.27;60.24
45403;BME280;47427;51.976;5.326;2023-03-11T18:35:20;101155.00;;;4.18;60.67
45403;BME280;47427;51.976;5.326;2023-03-11T18:38:44;101153.63;;;4.08;61.60
45403;BME280;47427;51.976;5.326;2023-03-11T18:42:06;101164.06;;;4.09;62.59
45403;BME280;47427;51.976;5.326;2023-03-11T18:45:29;101163.97;;;4.23;62.70
45403;BME280;47427;51.976;5.326;2023-03-11T18:48:53;101162.06;;;4.35;62.63
45403;BME280;47427;51.976;5.326;2023-03-11T18:52:16;101166.47;;;4.36;63.18
45403;BME280;47427;51.976;5.326;2023-03-11T18:55:39;101168.91;;;4.33;63.99
45403;BME280;47427;51.976;5.326;2023-03-11T18:59:00;101171.28;;;4.30;64.86